sensor_id;sensor_type;location;lat;lon;timestamp;temperature;humidity
774;DHT22;370;48.810;9.150;2022-12-20T00:01:27;5.00;19.50
774;DHT22;370;48.810;9.150;2022-12-20T00:03:56;5.00;19.30
774;DHT22;370;48.810;9.150;2022-12-20T00:06:24;5.00;19.30
774;DHT22;370;48.810;9.150;2022-12-20T00:08:54;4.90;19.80
774;DHT22;370;48.810;9.150;2022-12-20T00:11:21;4.90;19.70
774;DHT22;370;48.810;9.150;2022-12-20T00:13:49;4.90;19.80
774;DHT22;370;48.810;9.150;2022-12-20T00:16:17;4.90;19.70
774;DHT22;370;48.810;9.150;2022-12-20T00:18:44;4.90;19.70
774;DHT22;370;48.810;9.150;2022-12-20T00:21:13;5.00;19.80
774;DHT22;370;48.810;9.150;2022-12-20T00:23:40;5.00;19.30
774;DHT22;370;48.810;9.150;2022-12-20T00:26:10;5.10;18.90
774;DHT22;370;48.810;9.150;2022-12-20T00:28:37;4.90;18.60
774;DHT22;370;48.810;9.150;2022-12-20T00:31:05;4.80;19.70
774;DHT22;370;48.810;9.150;2022-12-20T00:33:33;4.80;19.80
774;DHT22;370;48.810;9.150;2022-12-20T00:36:00;4.80;19.70
774;DHT22;370;48.810;9.150;2022-12-20T00:38:27;4.80;19.70
774;DHT22;370;48.810;9.150;2022-12-20T00:41:01;4.70;20.20
774;DHT22;370;48.810;9.150;2022-12-20T00:43:31;4.70;19.60
774;DHT22;370;48.810;9.150;2022-12-20T00:45:58;4.70;19.60
774;DHT22;370;48.810;9.150;2022-12-20T00:48:25;4.70;19.70
774;DHT22;370;48.810;9.150;2022-12-20T00:50:57;4.70;20.10
774;DHT22;370;48.810;9.150;2022-12-20T00:53:24;4.80;21.00
774;DHT22;370;48.810;9.150;2022-12-20T00:55:51;4.80;20.50
774;DHT22;370;48.810;9.150;2022-12-20T00:58:17;4.80;20.40
774;DHT22;370;48.810;9.150;2022-12-20T01:00:46;4.80;20.00
774;DHT22;370;48.810;9.150;2022-12-20T01:03:13;4.90;20.30
774;DHT22;370;48.810;9.150;2022-12-20T01:05:49;4.90;20.20
774;DHT22;370;48.810;9.150;2022-12-20T01:08:16;5.00;19.80
774;DHT22;370;48.810;9.150;2022-12-20T01:10:42;5.00;19.80
774;DHT22;370;48.810;9.150;2022-12-20T01:13:09;5.10;19.90
774;DHT22;370;48.810;9.150;2022-12-20T01:15:36;5.10;19.90
774;DHT22;370;48.810;9.150;2022-12-20T01:18:04;5.10;19.20
774;DHT22;370;48.810;9.150;2022-12-20T01:20:31;5.10;18.50
774;DHT22;370;48.810;9.150;2022-12-20T01:22:58;5.20;18.90
774;DHT22;370;48.810;9.150;2022-12-20T01:25:24;5.20;18.40
774;DHT22;370;48.810;9.150;2022-12-20T01:27:51;5.20;18.30
774;DHT22;370;48.810;9.150;2022-12-20T01:30:18;5.20;17.60
774;DHT22;370;48.810;9.150;2022-12-20T01:32:45;4.90;18.10
774;DHT22;370;48.810;9.150;2022-12-20T01:35:13;5.00;19.80
774;DHT22;370;48.810;9.150;2022-12-20T01:37:40;5.10;20.40
774;DHT22;370;48.810;9.150;2022-12-20T01:40:08;5.10;19.40
774;DHT22;370;48.810;9.150;2022-12-20T01:42:35;5.10;18.50
774;DHT22;370;48.810;9.150;2022-12-20T01:45:07;5.10;18.30
774;DHT22;370;48.810;9.150;2022-12-20T01:47:38;5.10;18.40
774;DHT22;370;48.810;9.150;2022-12-20T01:50:07;5.10;17.90
774;DHT22;370;48.810;9.150;2022-12-20T01:52:38;5.10;18.40
774;DHT22;370;48.810;9.150;2022-12-20T01:55:09;5.20;18.10
774;DHT22;370;48.810;9.150;2022-12-20T01:57:41;5.10;17.90
774;DHT22;370;48.810;9.150;2022-12-20T02:00:10;5.10;18.60
774;DHT22;370;48.810;9.150;2022-12-20T02:02:38;5.10;18.50
774;DHT22;370;48.810;9.150;2022-12-20T02:05:06;5.20;18.10
774;DHT22;370;48.810;9.150;2022-12-20T02:07:36;5.20;17.50
774;DHT22;370;48.810;9.150;2022-12-20T02:10:05;5.20;16.90
774;DHT22;370;48.810;9.150;2022-12-20T02:12:37;5.10;17.10
774;DHT22;370;48.810;9.150;2022-12-20T02:15:17;4.90;19.70
774;DHT22;370;48.810;9.150;2022-12-20T02:17:51;4.90;19.80
774;DHT22;370;48.810;9.150;2022-12-20T02:24:14;5.10;18.90
774;DHT22;370;48.810;9.150;2022-12-20T02:27:03;5.10;18.40
774;DHT22;370;48.810;9.150;2022-12-20T02:29:35;5.10;18.60
774;DHT22;370;48.810;9.150;2022-12-20T02:32:08;5.10;18.40
774;DHT22;370;48.810;9.150;2022-12-20T02:34:39;5.00;18.30
774;DHT22;370;48.810;9.150;2022-12-20T02:37:07;5.00;18.50
774;DHT22;370;48.810;9.150;2022-12-20T02:39:35;4.90;18.30
774;DHT22;370;48.810;9.150;2022-12-20T02:42:05;4.90;18.40
774;DHT22;370;48.810;9.150;2022-12-20T02:44:35;4.80;18.10
774;DHT22;370;48.810;9.150;2022-12-20T02:47:25;4.80;19.70
774;DHT22;370;48.810;9.150;2022-12-20T02:49:53;4.70;19.70
774;DHT22;370;48.810;9.150;2022-12-20T02:52:23;4.70;20.10
774;DHT22;370;48.810;9.150;2022-12-20T02:54:52;4.80;20.60
774;DHT22;370;48.810;9.150;2022-12-20T02:57:22;4.80;19.70
774;DHT22;370;48.810;9.150;2022-12-20T02:59:57;4.70;19.60
774;DHT22;370;48.810;9.150;2022-12-20T03:02:28;4.70;21.20
774;DHT22;370;48.810;9.150;2022-12-20T03:05:17;4.80;21.70
774;DHT22;370;48.810;9.150;2022-12-20T03:07:45;4.80;21.50
774;DHT22;370;48.810;9.150;2022-12-20T03:10:12;4.90;21.00
774;DHT22;370;48.810;9.150;2022-12-20T03:12:39;4.80;20.10
774;DHT22;370;48.810;9.150;2022-12-20T03:15:06;4.90;21.30
774;DHT22;370;48.810;9.150;2022-12-20T03:17:35;5.00;21.30
774;DHT22;370;48.810;9.150;2022-12-20T03:20:02;5.10;20.80
774;DHT22;370;48.810;9.150;2022-12-20T03:22:30;5.00;21.00
774;DHT22;370;48.810;9.150;2022-12-20T03:24:58;5.10;22.40
774;DHT22;370;48.810;9.150;2022-12-20T03:27:24;5.20;22.30
774;DHT22;370;48.810;9.150;2022-12-20T03:29:52;5.20;22.30
774;DHT22;370;48.810;9.150;2022-12-20T03:32:19;5.30;21.80
774;DHT22;370;48.810;9.150;2022-12-20T03:34:47;5.30;21.80
774;DHT22;370;48.810;9.150;2022-12-20T03:37:14;5.30;21.80
774;DHT22;370;48.810;9.150;2022-12-20T03:39:41;5.30;21.40
774;DHT22;370;48.810;9.150;2022-12-20T03:42:08;5.40;20.40
774;DHT22;370;48.810;9.150;2022-12-20T03:44:35;5.60;20.20
774;DHT22;370;48.810;9.150;2022-12-20T03:47:02;5.70;18.70
774;DHT22;370;48.810;9.150;2022-12-20T03:49:29;5.60;17.20
774;DHT22;370;48.810;9.150;2022-12-20T03:51:57;5.70;17.10
774;DHT22;370;48.810;9.150;2022-12-20T03:54:24;5.70;16.60
774;DHT22;370;48.810;9.150;2022-12-20T03:56:51;5.80;15.90
774;DHT22;370;48.810;9.150;2022-12-20T03:59:18;5.80;16.00
774;DHT22;370;48.810;9.150;2022-12-20T04:01:44;5.80;15.50
774;DHT22;370;48.810;9.150;2022-12-20T04:04:12;5.80;15.70
774;DHT22;370;48.810;9.150;2022-12-20T04:06:40;5.80;15.10
774;DHT22;370;48.810;9.150;2022-12-20T04:09:08;5.80;14.80
774;DHT22;370;48.810;9.150;2022-12-20T04:11:35;5.80;15.00
774;DHT22;370;48.810;9.150;2022-12-20T04:14:01;5.90;14.10
774;DHT22;370;48.810;9.150;2022-12-20T04:16:29;5.80;14.30
774;DHT22;370;48.810;9.150;2022-12-20T04:18:56;5.90;13.90
774;DHT22;370;48.810;9.150;2022-12-20T04:21:24;5.90;14.80
774;DHT22;370;48.810;9.150;2022-12-20T04:23:51;5.90;13.80
774;DHT22;370;48.810;9.150;2022-12-20T04:26:20;5.80;14.40
774;DHT22;370;48.810;9.150;2022-12-20T04:28:47;5.90;14.20
774;DHT22;370;48.810;9.150;2022-12-20T04:31:14;5.80;14.40
774;DHT22;370;48.810;9.150;2022-12-20T04:33:41;6.00;13.90
774;DHT22;370;48.810;9.150;2022-12-20T04:36:08;5.90;13.80
774;DHT22;370;48.810;9.150;2022-12-20T04:38:35;6.00;13.70
774;DHT22;370;48.810;9.150;2022-12-20T04:41:02;6.00;13.30
774;DHT22;370;48.810;9.150;2022-12-20T04:43:30;6.00;12.90
774;DHT22;370;48.810;9.150;2022-12-20T04:45:57;6.00;12.20
774;DHT22;370;48.810;9.150;2022-12-20T04:48:25;6.00;13.30
774;DHT22;370;48.810;9.150;2022-12-20T04:50:53;6.00;13.30
774;DHT22;370;48.810;9.150;2022-12-20T04:53:21;6.00;13.90
774;DHT22;370;48.810;9.150;2022-12-20T04:56:06;6.10;13.10
774;DHT22;370;48.810;9.150;2022-12-20T04:58:34;6.00;12.90
774;DHT22;370;48.810;9.150;2022-12-20T05:01:01;6.10;13.10
774;DHT22;370;48.810;9.150;2022-12-20T05:03:27;6.10;13.10
774;DHT22;370;48.810;9.150;2022-12-20T05:05:54;6.10;13.20
774;DHT22;370;48.810;9.150;2022-12-20T05:08:21;6.10;13.20
774;DHT22;370;48.810;9.150;2022-12-20T05:10:48;6.20;12.80
774;DHT22;370;48.810;9.150;2022-12-20T05:13:15;6.20;12.10
774;DHT22;370;48.810;9.150;2022-12-20T05:15:43;6.30;12.20
774;DHT22;370;48.810;9.150;2022-12-20T05:18:10;6.30;12.20
774;DHT22;370;48.810;9.150;2022-12-20T05:20:37;6.40;12.20
774;DHT22;370;48.810;9.150;2022-12-20T05:23:04;6.30;12.20
774;DHT22;370;48.810;9.150;2022-12-20T05:25:49;6.30;12.20
774;DHT22;370;48.810;9.150;2022-12-20T05:28:30;6.30;12.20
774;DHT22;370;48.810;9.150;2022-12-20T05:30:59;6.40;12.20
774;DHT22;370;48.810;9.150;2022-12-20T05:33:27;6.40;12.30
774;DHT22;370;48.810;9.150;2022-12-20T05:35:54;6.40;12.20
774;DHT22;370;48.810;9.150;2022-12-20T05:38:21;6.40;12.20
774;DHT22;370;48.810;9.150;2022-12-20T05:40:49;6.50;12.30
774;DHT22;370;48.810;9.150;2022-12-20T05:43:16;6.40;12.20
774;DHT22;370;48.810;9.150;2022-12-20T05:45:45;6.40;12.20
774;DHT22;370;48.810;9.150;2022-12-20T05:48:14;6.40;12.20
774;DHT22;370;48.810;9.150;2022-12-20T05:50:42;6.40;12.20
774;DHT22;370;48.810;9.150;2022-12-20T05:53:10;6.40;11.80
774;DHT22;370;48.810;9.150;2022-12-20T05:55:37;6.40;11.70
774;DHT22;370;48.810;9.150;2022-12-20T05:58:05;6.40;12.30
774;DHT22;370;48.810;9.150;2022-12-20T06:00:32;6.40;12.20
774;DHT22;370;48.810;9.150;2022-12-20T06:02:59;6.30;12.20
774;DHT22;370;48.810;9.150;2022-12-20T06:05:27;6.30;12.20
774;DHT22;370;48.810;9.150;2022-12-20T06:07:54;6.20;12.10
774;DHT22;370;48.810;9.150;2022-12-20T06:10:21;6.20;12.10
774;DHT22;370;48.810;9.150;2022-12-20T06:12:48;6.10;12.00
774;DHT22;370;48.810;9.150;2022-12-20T06:15:15;6.20;12.10
774;DHT22;370;48.810;9.150;2022-12-20T06:17:41;6.10;12.20
774;DHT22;370;48.810;9.150;2022-12-20T06:20:09;6.10;12.10
774;DHT22;370;48.810;9.150;2022-12-20T06:22:39;6.10;12.60
774;DHT22;370;48.810;9.150;2022-12-20T06:25:06;6.10;12.20
774;DHT22;370;48.810;9.150;2022-12-20T06:27:34;6.10;12.00
774;DHT22;370;48.810;9.150;2022-12-20T06:30:00;6.10;12.10
774;DHT22;370;48.810;9.150;2022-12-20T06:32:27;6.10;12.10
774;DHT22;370;48.810;9.150;2022-12-20T06:34:54;6.10;12.00
774;DHT22;370;48.810;9.150;2022-12-20T06:37:21;6.20;12.10
774;DHT22;370;48.810;9.150;2022-12-20T06:39:49;6.20;12.10
774;DHT22;370;48.810;9.150;2022-12-20T06:42:16;6.10;12.00
774;DHT22;370;48.810;9.150;2022-12-20T06:44:43;6.10;12.10
774;DHT22;370;48.810;9.150;2022-12-20T06:47:10;6.10;12.80
774;DHT22;370;48.810;9.150;2022-12-20T06:49:37;6.10;12.70
774;DHT22;370;48.810;9.150;2022-12-20T06:52:04;6.10;12.00
774;DHT22;370;48.810;9.150;2022-12-20T06:54:31;6.10;12.50
774;DHT22;370;48.810;9.150;2022-12-20T06:56:59;6.10;12.80
774;DHT22;370;48.810;9.150;2022-12-20T06:59:26;6.00;13.80
774;DHT22;370;48.810;9.150;2022-12-20T07:01:52;6.10;13.10
774;DHT22;370;48.810;9.150;2022-12-20T07:04:19;6.10;13.10
774;DHT22;370;48.810;9.150;2022-12-20T07:06:46;6.10;12.30
774;DHT22;370;48.810;9.150;2022-12-20T07:09:13;6.10;13.10
774;DHT22;370;48.810;9.150;2022-12-20T07:11:40;6.10;12.90
774;DHT22;370;48.810;9.150;2022-12-20T07:14:09;6.00;12.50
774;DHT22;370;48.810;9.150;2022-12-20T07:16:36;5.90;14.40
774;DHT22;370;48.810;9.150;2022-12-20T07:19:06;5.80;15.30
774;DHT22;370;48.810;9.150;2022-12-20T07:21:32;5.80;16.40
774;DHT22;370;48.810;9.150;2022-12-20T07:24:00;5.90;16.10
774;DHT22;370;48.810;9.150;2022-12-20T07:26:26;6.00;15.10
774;DHT22;370;48.810;9.150;2022-12-20T07:28:53;6.00;14.50
774;DHT22;370;48.810;9.150;2022-12-20T07:31:22;5.80;14.70
774;DHT22;370;48.810;9.150;2022-12-20T07:33:48;6.00;14.80
774;DHT22;370;48.810;9.150;2022-12-20T07:36:15;6.10;14.50
774;DHT22;370;48.810;9.150;2022-12-20T07:38:42;6.10;13.80
774;DHT22;370;48.810;9.150;2022-12-20T07:41:11;6.00;12.90
774;DHT22;370;48.810;9.150;2022-12-20T07:43:38;6.10;14.10
774;DHT22;370;48.810;9.150;2022-12-20T07:46:06;6.00;14.70
774;DHT22;370;48.810;9.150;2022-12-20T07:48:35;6.00;15.00
774;DHT22;370;48.810;9.150;2022-12-20T07:51:05;6.20;14.50
774;DHT22;370;48.810;9.150;2022-12-20T07:53:34;6.40;13.70
774;DHT22;370;48.810;9.150;2022-12-20T07:56:04;6.40;13.30
774;DHT22;370;48.810;9.150;2022-12-20T07:58:34;6.30;13.50
774;DHT22;370;48.810;9.150;2022-12-20T08:01:02;6.40;12.90
774;DHT22;370;48.810;9.150;2022-12-20T08:03:31;6.60;12.70
774;DHT22;370;48.810;9.150;2022-12-20T08:06:02;6.60;12.40
774;DHT22;370;48.810;9.150;2022-12-20T08:08:31;6.60;12.40
774;DHT22;370;48.810;9.150;2022-12-20T08:11:00;6.50;12.30
774;DHT22;370;48.810;9.150;2022-12-20T08:13:28;6.50;14.00
774;DHT22;370;48.810;9.150;2022-12-20T08:15:54;6.70;12.90
774;DHT22;370;48.810;9.150;2022-12-20T08:18:21;6.80;12.50
774;DHT22;370;48.810;9.150;2022-12-20T08:20:48;7.00;12.10
774;DHT22;370;48.810;9.150;2022-12-20T08:23:16;7.10;10.70
774;DHT22;370;48.810;9.150;2022-12-20T08:25:44;7.20;10.10
774;DHT22;370;48.810;9.150;2022-12-20T08:28:10;7.10;9.80
774;DHT22;370;48.810;9.150;2022-12-20T08:30:37;7.00;10.60
774;DHT22;370;48.810;9.150;2022-12-20T08:33:04;7.20;10.20
774;DHT22;370;48.810;9.150;2022-12-20T08:35:31;7.30;8.90
774;DHT22;370;48.810;9.150;2022-12-20T08:37:58;7.40;8.50
774;DHT22;370;48.810;9.150;2022-12-20T08:40:26;7.30;8.20
774;DHT22;370;48.810;9.150;2022-12-20T08:42:52;7.40;8.20
774;DHT22;370;48.810;9.150;2022-12-20T08:45:19;7.50;8.10
774;DHT22;370;48.810;9.150;2022-12-20T08:47:46;7.60;7.90
774;DHT22;370;48.810;9.150;2022-12-20T08:50:13;7.60;7.40
774;DHT22;370;48.810;9.150;2022-12-20T08:52:40;7.80;7.40
774;DHT22;370;48.810;9.150;2022-12-20T08:55:07;7.90;6.60
774;DHT22;370;48.810;9.150;2022-12-20T08:57:35;8.00;5.50
774;DHT22;370;48.810;9.150;2022-12-20T09:00:03;8.10;5.30
774;DHT22;370;48.810;9.150;2022-12-20T09:02:29;8.20;4.60
774;DHT22;370;48.810;9.150;2022-12-20T09:04:56;8.40;4.70
774;DHT22;370;48.810;9.150;2022-12-20T09:07:23;8.30;4.70
774;DHT22;370;48.810;9.150;2022-12-20T09:09:50;8.30;4.70
774;DHT22;370;48.810;9.150;2022-12-20T09:12:17;8.50;4.30
774;DHT22;370;48.810;9.150;2022-12-20T09:14:45;8.60;3.80
774;DHT22;370;48.810;9.150;2022-12-20T09:17:12;8.60;3.50
774;DHT22;370;48.810;9.150;2022-12-20T09:19:38;8.60;3.20
774;DHT22;370;48.810;9.150;2022-12-20T09:22:05;8.70;3.20
774;DHT22;370;48.810;9.150;2022-12-20T09:24:33;8.80;3.00
774;DHT22;370;48.810;9.150;2022-12-20T09:26:59;8.80;2.80
774;DHT22;370;48.810;9.150;2022-12-20T09:29:26;9.00;2.60
774;DHT22;370;48.810;9.150;2022-12-20T09:31:54;9.10;2.40
774;DHT22;370;48.810;9.150;2022-12-20T09:34:21;9.10;1.80
774;DHT22;370;48.810;9.150;2022-12-20T09:36:48;9.20;1.50
774;DHT22;370;48.810;9.150;2022-12-20T09:39:15;9.20;1.60
774;DHT22;370;48.810;9.150;2022-12-20T09:41:43;9.10;1.30
774;DHT22;370;48.810;9.150;2022-12-20T09:44:15;9.10;1.70
774;DHT22;370;48.810;9.150;2022-12-20T09:46:46;9.10;1.40
774;DHT22;370;48.810;9.150;2022-12-20T09:49:26;9.10;1.70
774;DHT22;370;48.810;9.150;2022-12-20T09:52:09;9.00;1.60
774;DHT22;370;48.810;9.150;2022-12-20T09:54:45;9.10;2.40
774;DHT22;370;48.810;9.150;2022-12-20T09:57:22;8.90;2.50
774;DHT22;370;48.810;9.150;2022-12-20T09:59:55;9.20;2.20
774;DHT22;370;48.810;9.150;2022-12-20T10:02:24;9.50;1.40
774;DHT22;370;48.810;9.150;2022-12-20T10:04:53;9.60;1.40
774;DHT22;370;48.810;9.150;2022-12-20T10:07:30;9.80;1.00
774;DHT22;370;48.810;9.150;2022-12-20T10:10:16;9.90;1.00
774;DHT22;370;48.810;9.150;2022-12-20T10:12:53;9.80;1.00
774;DHT22;370;48.810;9.150;2022-12-20T10:15:26;9.80;1.00
774;DHT22;370;48.810;9.150;2022-12-20T10:18:10;9.80;1.00
774;DHT22;370;48.810;9.150;2022-12-20T10:20:52;9.90;1.00
774;DHT22;370;48.810;9.150;2022-12-20T10:23:25;10.10;1.00
774;DHT22;370;48.810;9.150;2022-12-20T10:25:55;10.10;1.00
774;DHT22;370;48.810;9.150;2022-12-20T10:28:25;10.20;1.00
774;DHT22;370;48.810;9.150;2022-12-20T10:30:53;10.30;1.00
774;DHT22;370;48.810;9.150;2022-12-20T10:33:21;10.40;1.00
774;DHT22;370;48.810;9.150;2022-12-20T10:35:50;10.50;1.00
774;DHT22;370;48.810;9.150;2022-12-20T10:38:17;10.40;1.00
774;DHT22;370;48.810;9.150;2022-12-20T10:40:47;10.40;1.00
774;DHT22;370;48.810;9.150;2022-12-20T10:43:16;10.30;1.00
774;DHT22;370;48.810;9.150;2022-12-20T10:45:52;10.30;1.00
774;DHT22;370;48.810;9.150;2022-12-20T10:48:27;10.20;1.00
774;DHT22;370;48.810;9.150;2022-12-20T10:50:58;10.20;1.00
774;DHT22;370;48.810;9.150;2022-12-20T10:53:25;10.20;1.00
774;DHT22;370;48.810;9.150;2022-12-20T10:55:54;10.10;1.00
774;DHT22;370;48.810;9.150;2022-12-20T10:58:30;10.10;1.00
774;DHT22;370;48.810;9.150;2022-12-20T11:01:10;10.20;1.00
774;DHT22;370;48.810;9.150;2022-12-20T11:03:50;10.20;1.00
774;DHT22;370;48.810;9.150;2022-12-20T11:06:20;10.20;1.00
774;DHT22;370;48.810;9.150;2022-12-20T11:08:48;10.20;1.00
774;DHT22;370;48.810;9.150;2022-12-20T11:11:18;10.20;1.00
774;DHT22;370;48.810;9.150;2022-12-20T11:13:48;10.30;1.00
774;DHT22;370;48.810;9.150;2022-12-20T11:16:27;10.30;1.00
774;DHT22;370;48.810;9.150;2022-12-20T11:19:33;10.40;1.00
774;DHT22;370;48.810;9.150;2022-12-20T11:22:14;10.40;1.00
774;DHT22;370;48.810;9.150;2022-12-20T11:24:51;10.50;1.00
774;DHT22;370;48.810;9.150;2022-12-20T11:27:30;10.60;1.00
774;DHT22;370;48.810;9.150;2022-12-20T11:30:06;10.70;1.00
774;DHT22;370;48.810;9.150;2022-12-20T11:32:46;10.60;1.00
774;DHT22;370;48.810;9.150;2022-12-20T11:35:19;10.60;1.00
774;DHT22;370;48.810;9.150;2022-12-20T11:37:55;10.80;1.00
774;DHT22;370;48.810;9.150;2022-12-20T11:40:30;10.90;1.00
774;DHT22;370;48.810;9.150;2022-12-20T11:43:26;11.00;1.00
774;DHT22;370;48.810;9.150;2022-12-20T11:46:08;11.10;1.00
774;DHT22;370;48.810;9.150;2022-12-20T11:49:02;11.10;1.00
774;DHT22;370;48.810;9.150;2022-12-20T11:51:39;11.10;1.00
774;DHT22;370;48.810;9.150;2022-12-20T11:54:14;11.00;1.00
774;DHT22;370;48.810;9.150;2022-12-20T11:56:44;11.00;1.00
774;DHT22;370;48.810;9.150;2022-12-20T11:59:18;11.00;1.00
774;DHT22;370;48.810;9.150;2022-12-20T12:01:51;10.90;1.00
774;DHT22;370;48.810;9.150;2022-12-20T12:04:21;10.80;1.00
774;DHT22;370;48.810;9.150;2022-12-20T12:06:54;10.60;1.00
774;DHT22;370;48.810;9.150;2022-12-20T12:09:28;10.70;1.00
774;DHT22;370;48.810;9.150;2022-12-20T12:12:00;10.70;1.00
774;DHT22;370;48.810;9.150;2022-12-20T12:14:37;10.70;1.00
774;DHT22;370;48.810;9.150;2022-12-20T12:17:11;10.70;1.00
774;DHT22;370;48.810;9.150;2022-12-20T12:19:42;10.70;1.00
774;DHT22;370;48.810;9.150;2022-12-20T12:22:15;10.70;1.00
774;DHT22;370;48.810;9.150;2022-12-20T12:24:51;10.70;1.00
774;DHT22;370;48.810;9.150;2022-12-20T12:27:23;10.50;1.00
774;DHT22;370;48.810;9.150;2022-12-20T12:29:50;10.40;1.00
774;DHT22;370;48.810;9.150;2022-12-20T12:32:23;10.20;1.00
774;DHT22;370;48.810;9.150;2022-12-20T12:35:04;10.20;1.00
774;DHT22;370;48.810;9.150;2022-12-20T12:37:47;10.30;1.00
774;DHT22;370;48.810;9.150;2022-12-20T12:40:49;10.50;1.00
774;DHT22;370;48.810;9.150;2022-12-20T12:43:48;10.60;1.00
774;DHT22;370;48.810;9.150;2022-12-20T12:46:18;10.70;1.00
774;DHT22;370;48.810;9.150;2022-12-20T12:48:51;10.90;1.00
774;DHT22;370;48.810;9.150;2022-12-20T12:51:24;11.00;1.00
774;DHT22;370;48.810;9.150;2022-12-20T12:53:54;11.10;1.00
774;DHT22;370;48.810;9.150;2022-12-20T12:56:46;11.00;1.00
774;DHT22;370;48.810;9.150;2022-12-20T12:59:23;11.10;1.00
774;DHT22;370;48.810;9.150;2022-12-20T13:02:33;11.20;1.00
774;DHT22;370;48.810;9.150;2022-12-20T13:07:49;11.20;1.00
774;DHT22;370;48.810;9.150;2022-12-20T13:10:56;11.10;1.00
774;DHT22;370;48.810;9.150;2022-12-20T13:13:25;11.10;1.00
774;DHT22;370;48.810;9.150;2022-12-20T13:16:10;11.20;1.00
774;DHT22;370;48.810;9.150;2022-12-20T13:18:37;11.20;1.00
774;DHT22;370;48.810;9.150;2022-12-20T13:24:35;11.20;1.00
774;DHT22;370;48.810;9.150;2022-12-20T13:27:13;11.20;1.00
774;DHT22;370;48.810;9.150;2022-12-20T13:29:57;11.20;1.00
774;DHT22;370;48.810;9.150;2022-12-20T13:32:56;11.10;1.00
774;DHT22;370;48.810;9.150;2022-12-20T13:35:58;11.10;1.00
774;DHT22;370;48.810;9.150;2022-12-20T13:38:49;10.90;1.00
774;DHT22;370;48.810;9.150;2022-12-20T13:41:38;10.80;1.00
774;DHT22;370;48.810;9.150;2022-12-20T13:47:13;10.40;1.00
774;DHT22;370;48.810;9.150;2022-12-20T13:49:44;10.30;1.00
774;DHT22;370;48.810;9.150;2022-12-20T13:52:23;10.10;1.00
774;DHT22;370;48.810;9.150;2022-12-20T13:54:54;10.30;1.00
774;DHT22;370;48.810;9.150;2022-12-20T13:57:28;10.30;1.00
774;DHT22;370;48.810;9.150;2022-12-20T14:00:01;10.30;1.00
774;DHT22;370;48.810;9.150;2022-12-20T14:02:33;10.30;1.00
774;DHT22;370;48.810;9.150;2022-12-20T14:05:11;10.30;1.00
774;DHT22;370;48.810;9.150;2022-12-20T14:07:42;10.40;1.00
774;DHT22;370;48.810;9.150;2022-12-20T14:10:19;10.10;1.00
774;DHT22;370;48.810;9.150;2022-12-20T14:12:46;9.90;1.00
774;DHT22;370;48.810;9.150;2022-12-20T14:15:34;10.00;1.00
774;DHT22;370;48.810;9.150;2022-12-20T14:18:04;10.00;1.00
774;DHT22;370;48.810;9.150;2022-12-20T14:20:36;10.10;1.00
774;DHT22;370;48.810;9.150;2022-12-20T14:23:07;10.20;1.00
774;DHT22;370;48.810;9.150;2022-12-20T14:25:40;10.20;1.00
774;DHT22;370;48.810;9.150;2022-12-20T14:28:18;10.30;1.00
774;DHT22;370;48.810;9.150;2022-12-20T14:30:48;10.30;1.00
774;DHT22;370;48.810;9.150;2022-12-20T14:33:27;10.30;1.00
774;DHT22;370;48.810;9.150;2022-12-20T14:35:54;10.30;1.00
774;DHT22;370;48.810;9.150;2022-12-20T14:38:28;10.20;1.00
774;DHT22;370;48.810;9.150;2022-12-20T14:40:56;10.10;1.00
774;DHT22;370;48.810;9.150;2022-12-20T14:43:26;10.10;1.00
774;DHT22;370;48.810;9.150;2022-12-20T14:46:18;10.00;1.00
774;DHT22;370;48.810;9.150;2022-12-20T14:48:45;9.90;1.00
774;DHT22;370;48.810;9.150;2022-12-20T14:51:13;9.90;1.00
774;DHT22;370;48.810;9.150;2022-12-20T14:53:47;9.80;1.00
774;DHT22;370;48.810;9.150;2022-12-20T14:56:18;9.80;1.00
774;DHT22;370;48.810;9.150;2022-12-20T14:58:47;9.70;1.00
774;DHT22;370;48.810;9.150;2022-12-20T15:01:26;9.70;1.00
774;DHT22;370;48.810;9.150;2022-12-20T15:03:57;9.60;1.00
774;DHT22;370;48.810;9.150;2022-12-20T15:06:31;9.60;1.00
774;DHT22;370;48.810;9.150;2022-12-20T15:09:00;9.40;1.00
774;DHT22;370;48.810;9.150;2022-12-20T15:11:27;9.20;1.00
774;DHT22;370;48.810;9.150;2022-12-20T15:13:55;9.30;1.30
774;DHT22;370;48.810;9.150;2022-12-20T15:16:24;9.30;1.30
774;DHT22;370;48.810;9.150;2022-12-20T15:18:52;9.30;1.20
774;DHT22;370;48.810;9.150;2022-12-20T15:21:26;9.20;1.30
774;DHT22;370;48.810;9.150;2022-12-20T15:23:54;9.10;1.80
774;DHT22;370;48.810;9.150;2022-12-20T15:26:25;9.10;2.10
774;DHT22;370;48.810;9.150;2022-12-20T15:28:52;9.20;2.00
774;DHT22;370;48.810;9.150;2022-12-20T15:31:21;9.10;2.10
774;DHT22;370;48.810;9.150;2022-12-20T15:33:49;9.00;2.70
774;DHT22;370;48.810;9.150;2022-12-20T15:36:19;9.00;3.10
774;DHT22;370;48.810;9.150;2022-12-20T15:38:47;9.00;3.00
774;DHT22;370;48.810;9.150;2022-12-20T15:41:23;9.00;3.00
774;DHT22;370;48.810;9.150;2022-12-20T15:43:51;9.00;3.00
774;DHT22;370;48.810;9.150;2022-12-20T15:46:19;9.00;3.10
774;DHT22;370;48.810;9.150;2022-12-20T15:48:46;9.00;2.90
774;DHT22;370;48.810;9.150;2022-12-20T15:51:20;9.00;2.90
774;DHT22;370;48.810;9.150;2022-12-20T15:53:49;8.90;3.00
774;DHT22;370;48.810;9.150;2022-12-20T15:56:18;8.90;3.10
774;DHT22;370;48.810;9.150;2022-12-20T15:58:48;9.00;3.10
774;DHT22;370;48.810;9.150;2022-12-20T16:01:20;8.90;2.90
774;DHT22;370;48.810;9.150;2022-12-20T16:03:48;8.80;3.30
774;DHT22;370;48.810;9.150;2022-12-20T16:06:14;8.80;3.90
774;DHT22;370;48.810;9.150;2022-12-20T16:08:41;8.80;4.20
774;DHT22;370;48.810;9.150;2022-12-20T16:11:18;8.70;4.90
774;DHT22;370;48.810;9.150;2022-12-20T16:13:47;8.70;4.90
774;DHT22;370;48.810;9.150;2022-12-20T16:16:16;8.80;5.00
774;DHT22;370;48.810;9.150;2022-12-20T16:18:43;8.80;5.00
774;DHT22;370;48.810;9.150;2022-12-20T16:21:15;8.80;4.50
774;DHT22;370;48.810;9.150;2022-12-20T16:23:43;8.80;4.50
774;DHT22;370;48.810;9.150;2022-12-20T16:26:12;8.80;4.50
774;DHT22;370;48.810;9.150;2022-12-20T16:28:38;8.80;4.40
774;DHT22;370;48.810;9.150;2022-12-20T16:31:14;8.80;3.90
774;DHT22;370;48.810;9.150;2022-12-20T16:33:43;8.80;4.20
774;DHT22;370;48.810;9.150;2022-12-20T16:36:10;8.80;4.10
774;DHT22;370;48.810;9.150;2022-12-20T16:38:39;8.80;4.90
774;DHT22;370;48.810;9.150;2022-12-20T16:41:11;8.70;4.90
774;DHT22;370;48.810;9.150;2022-12-20T16:43:38;8.60;4.90
774;DHT22;370;48.810;9.150;2022-12-20T16:46:05;8.60;5.70
774;DHT22;370;48.810;9.150;2022-12-20T16:48:33;8.50;6.30
774;DHT22;370;48.810;9.150;2022-12-20T16:51:00;8.60;5.20
774;DHT22;370;48.810;9.150;2022-12-20T16:53:27;8.60;5.00
774;DHT22;370;48.810;9.150;2022-12-20T16:55:53;8.70;4.90
774;DHT22;370;48.810;9.150;2022-12-20T16:58:20;8.60;4.90
774;DHT22;370;48.810;9.150;2022-12-20T17:00:47;8.70;5.50
774;DHT22;370;48.810;9.150;2022-12-20T17:03:15;8.70;4.90
774;DHT22;370;48.810;9.150;2022-12-20T17:05:43;8.70;4.90
774;DHT22;370;48.810;9.150;2022-12-20T17:08:10;8.80;5.00
774;DHT22;370;48.810;9.150;2022-12-20T17:10:36;8.70;4.90
774;DHT22;370;48.810;9.150;2022-12-20T17:13:03;8.70;4.90
774;DHT22;370;48.810;9.150;2022-12-20T17:15:30;8.80;5.00
774;DHT22;370;48.810;9.150;2022-12-20T17:17:57;8.70;4.90
774;DHT22;370;48.810;9.150;2022-12-20T17:20:24;8.60;5.40
774;DHT22;370;48.810;9.150;2022-12-20T17:22:54;8.60;5.70
774;DHT22;370;48.810;9.150;2022-12-20T17:25:26;8.60;6.40
774;DHT22;370;48.810;9.150;2022-12-20T17:27:53;8.60;6.20
774;DHT22;370;48.810;9.150;2022-12-20T17:30:21;8.60;6.50
774;DHT22;370;48.810;9.150;2022-12-20T17:32:48;8.50;6.80